Terminal Aerodrome Forecast
Issued by NWS

Home | Current Version | Previous Version | Text Only | Print | Product List | Glossary On
Versions: 1 2 3 4 5 6 7 8 9 10 11 12 13 14 15 16 17 18 19 20 21 22 23
659
FTUS46 KSEW 060908 AAA
TAFSEA
TAF AMD
KSEA 060908Z 0609/0712 20018G30KT P6SM SCT060 BKN090 OVC100
     FM061000 21012KT P6SM VCSH SCT080 BKN100
     FM061400 20010KT P6SM VCSH SCT050 BKN080 OVC100
     FM070100 10006KT P6SM SCT030 SCT050 BKN100=

USA.gov is the U.S. government's official web portal to all federal, state and local government web resources and services.